Time;durP1;ratioP1;P1;durP2;ratioP2;P2;SDS_P1;SDS_P2;PMS_P1;PMS_P2;Temp;Humidity;BMP_temperature;BMP_pressure;BME280_temperature;BME280_humidity;BME280_pressure;Samples;Min_cycle;Max_cycle;Signal;HPM_P1;HPM_P2
2022/02/22 00:02:06;;;;;;;13.65;4.50;;;6.70;99.90;;;;;;4905522;29;20196;-84
2022/02/22 00:04:36;;;;;;;16.08;3.15;;;8.70;99.90;;;;;;4902259;29;20228;-85
2022/02/22 00:07:05;;;;;;;21.17;4.72;;;8.60;99.90;;;;;;4910087;29;20199;-84
2022/02/22 00:09:31;;;;;;;15.07;3.47;;;6.60;99.90;;;;;;4904563;29;20192;-84
2022/02/22 00:11:57;;;;;;;12.65;3.40;;;6.60;99.90;;;;;;4900083;29;20204;-82
2022/02/22 00:14:24;;;;;;;20.83;4.07;;;6.60;99.90;;;;;;4905832;29;20555;-83
2022/02/22 00:16:55;;;;;;;17.17;4.32;;;6.60;99.90;;;;;;4904349;29;20216;-83
2022/02/22 00:19:24;;;;;;;22.83;4.80;;;6.50;99.90;;;;;;4900667;29;20219;-82
2022/02/22 00:21:51;;;;;;;16.77;4.05;;;6.40;99.90;;;;;;4909263;29;20202;-83
2022/02/22 00:24:17;;;;;;;10.43;3.08;;;6.50;99.90;;;;;;4908239;29;20220;-81
2022/02/22 00:26:43;;;;;;;18.95;5.45;;;6.40;99.90;;;;;;4911938;29;20363;-83
2022/02/22 00:29:09;;;;;;;19.83;4.35;;;6.40;99.90;;;;;;4908549;29;20208;-82
2022/02/22 00:31:36;;;;;;;24.80;5.22;;;6.40;99.90;;;;;;4913442;29;20231;-83
2022/02/22 00:34:03;;;;;;;30.67;5.20;;;6.40;99.90;;;;;;4897237;29;20183;-83
2022/02/22 00:36:29;;;;;;;16.38;3.35;;;6.50;99.90;;;;;;4914500;29;20192;-83
2022/02/22 00:38:54;;;;;;;25.60;6.03;;;6.40;99.90;;;;;;4913218;29;20184;-83
2022/02/22 00:41:20;;;;;;;32.40;5.27;;;6.30;99.90;;;;;;4911262;29;20192;-83
2022/02/22 00:43:45;;;;;;;22.80;5.63;;;6.30;99.90;;;;;;4909550;29;20295;-83
2022/02/22 00:46:11;;;;;;;13.80;3.63;;;6.20;99.90;;;;;;4913107;29;20207;-82
2022/02/22 00:48:38;;;;;;;12.27;2.87;;;5.90;99.90;;;;;;4989141;23;20202;-86
2022/02/22 00:51:04;;;;;;;9.60;2.50;;;7.70;99.90;;;;;;4912729;29;20424;-86
2022/02/22 00:53:30;;;;;;;14.30;2.63;;;6.50;99.90;;;;;;4917221;29;20523;-86
2022/02/22 00:55:55;;;;;;;7.68;2.53;;;5.90;99.90;;;;;;4907497;29;20227;-86
2022/02/22 00:58:21;;;;;;;6.70;2.60;;;6.90;99.90;;;;;;4891661;29;20289;-86
2022/02/22 01:00:47;;;;;;;15.63;2.43;;;6.10;99.90;;;;;;4893933;29;20200;-86
2022/02/22 01:03:12;;;;;;;6.63;2.13;;;6.20;99.90;;;;;;4898701;29;20193;-86
2022/02/22 01:05:55;;;;;;;7.07;3.00;;;5.90;99.90;;;;;;5081167;23;20331;-86
2022/02/22 01:08:29;;;;;;;7.63;2.42;;;5.20;99.90;;;;;;5102334;23;20195;-83
2022/02/22 01:18:52;;;;;;;19.30;3.85;;;5.60;99.90;;;;;;5068757;23;20229;-86
2022/02/22 01:21:18;;;;;;;16.00;5.03;;;6.00;99.90;;;;;;4904251;29;20235;-86
2022/02/22 01:24:20;;;;;;;22.90;5.45;;;7.40;99.90;;;;;;4920712;29;20211;-87
2022/02/22 01:26:46;;;;;;;22.40;5.85;;;3.70;99.90;;;;;;4910810;29;20215;-86
2022/02/22 01:29:24;;;;;;;14.63;5.22;;;5.90;99.90;;;;;;4937232;29;20207;-86
2022/02/22 01:31:56;;;;;;;23.75;5.07;;;5.60;99.90;;;;;;4938469;29;20183;-86
2022/02/22 01:34:38;;;;;;;21.48;4.90;;;5.50;99.90;;;;;;4919887;29;20199;-85
2022/02/22 01:37:09;;;;;;;23.90;4.43;;;6.80;99.90;;;;;;4925262;29;20261;-87
2022/02/22 01:40:09;;;;;;;24.10;7.32;;;5.70;99.90;;;;;;4915791;29;20176;-87
2022/02/22 01:42:51;;;;;;;24.20;6.82;;;9.80;99.90;;;;;;4904192;29;20180;-87
2022/02/22 01:45:43;;;;;;;25.60;5.50;;;5.10;99.90;;;;;;4917104;29;20251;-87
2022/02/22 02:08:51;;;;;;;25.17;6.65;;;5.50;99.90;;;;;;4935354;29;20271;-87
2022/02/22 02:11:53;;;;;;;29.57;6.67;;;5.80;99.90;;;;;;4921553;29;20203;-86
2022/02/22 02:14:45;;;;;;;20.63;4.80;;;8.60;99.90;;;;;;4873486;29;20496;-86
2022/02/22 02:32:51;;;;;;;8.82;5.20;;;5.20;99.90;;;;;;4937370;29;20219;-85
2022/02/22 02:35:31;;;;;;;14.55;4.35;;;5.80;99.90;;;;;;5151187;23;20235;-87
2022/02/22 02:37:59;;;;;;;23.00;5.30;;;5.00;99.90;;;;;;4903316;29;20185;-87
2022/02/22 02:40:25;;;;;;;15.32;4.82;;;8.00;99.90;;;;;;4920850;29;20168;-86
2022/02/22 02:42:51;;;;;;;28.15;4.90;;;5.50;99.90;;;;;;4936169;29;20187;-86
2022/02/22 02:50:31;;;;;;;20.40;5.43;;;5.10;99.90;;;;;;5492194;23;20233;-90
2022/02/22 02:52:56;;;;;;;26.98;5.07;;;5.40;99.90;;;;;;4940115;29;20196;-90
2022/02/22 02:55:28;;;;;;;17.90;3.97;;;3.70;99.90;;;;;;4956960;29;20198;-91
2022/02/22 02:57:59;;;;;;;15.07;4.97;;;5.80;99.90;;;;;;4938916;29;20440;-89
2022/02/22 03:00:28;;;;;;;19.90;5.05;;;6.80;99.90;;;;;;4920559;29;20231;-90
2022/02/22 03:02:59;;;;;;;29.95;5.47;;;5.70;99.90;;;;;;4957121;29;20195;-89
2022/02/22 03:05:31;;;;;;;21.13;5.57;;;5.50;99.90;;;;;;4922977;29;20219;-89
2022/02/22 03:08:05;;;;;;;11.55;4.13;;;2.40;99.90;;;;;;4904021;29;20168;-90
2022/02/22 03:10:38;;;;;;;34.45;6.55;;;4.70;99.90;;;;;;5155923;23;20234;-86
2022/02/22 03:13:09;;;;;;;20.45;4.40;;;6.50;99.90;;;;;;4920028;29;20187;-86
2022/02/22 03:15:42;;;;;;;27.30;4.88;;;7.90;99.90;;;;;;4918505;29;20169;-87
2022/02/22 03:18:13;;;;;;;23.27;4.53;;;8.70;99.90;;;;;;4921824;29;20188;-86
2022/02/22 03:20:58;;;;;;;25.65;5.47;;;6.10;99.90;;;;;;4919558;29;20172;-88
2022/02/22 03:26:11;;;;;;;23.98;4.85;;;4.80;99.90;;;;;;5079966;23;20470;-86
2022/02/22 03:28:47;;;;;;;17.08;6.10;;;8.10;99.90;;;;;;4904180;29;20197;-87
2022/02/22 03:31:18;;;;;;;46.05;5.88;;;6.30;99.90;;;;;;4919895;29;20222;-87
2022/02/22 03:33:57;;;;;;;23.42;4.20;;;5.00;99.90;;;;;;4908596;29;20198;-87
2022/02/22 03:36:38;;;;;;;18.77;5.18;;;5.00;99.90;;;;;;4919419;29;20180;-85
2022/02/22 03:39:19;;;;;;;24.63;5.20;;;5.60;99.90;;;;;;4919765;29;20200;-86
2022/02/22 03:42:00;;;;;;;17.13;4.38;;;4.90;99.90;;;;;;4903904;29;20208;-88
2022/02/22 03:44:29;;;;;;;23.35;5.28;;;4.80;99.90;;;;;;4902459;29;20216;-86
2022/02/22 03:47:03;;;;;;;23.45;5.35;;;5.20;99.90;;;;;;4920658;29;20218;-87
2022/02/22 03:49:55;;;;;;;27.00;4.95;;;6.10;99.90;;;;;;4920507;29;20198;-87
2022/02/22 03:57:35;;;;;;;21.17;5.53;;;4.80;99.90;;;;;;4790203;27;20239;-91
2022/02/22 04:00:14;;;;;;;28.25;6.00;;;4.50;99.90;;;;;;4937391;29;20192;-90
2022/02/22 04:02:46;;;;;;;24.13;5.47;;;6.60;99.90;;;;;;4918113;29;20176;-89
2022/02/22 04:05:14;;;;;;;21.55;5.97;;;4.50;99.90;;;;;;4937149;29;20227;-89
2022/02/22 04:07:43;;;;;;;22.08;6.18;;;4.50;99.90;;;;;;4901482;29;20168;-90
2022/02/22 04:10:09;;;;;;;17.85;6.32;;;6.30;99.90;;;;;;4935472;29;20251;-89
2022/02/22 04:12:36;;;;;;;17.85;4.13;;;4.90;99.90;;;;;;4921160;29;20191;-89
2022/02/22 04:15:09;;;;;;;14.13;4.65;;;5.30;99.90;;;;;;4920375;29;20208;-89
2022/02/22 04:17:38;;;;;;;20.65;5.15;;;5.90;99.90;;;;;;4921780;29;20164;-89
2022/02/22 04:20:19;;;;;;;19.45;4.38;;;6.00;99.90;;;;;;4921491;29;20192;-89
2022/02/22 04:22:51;;;;;;;27.05;5.78;;;7.70;99.90;;;;;;4938618;29;20208;-89
2022/02/22 04:25:18;;;;;;;17.98;5.30;;;4.20;99.90;;;;;;4920084;29;20222;-89
2022/02/22 04:27:50;;;;;;;20.23;5.22;;;5.50;99.90;;;;;;4921003;29;20179;-89
2022/02/22 04:30:21;;;;;;;24.48;4.50;;;5.20;99.90;;;;;;4921213;29;20225;-89
2022/02/22 04:32:47;;;;;;;18.70;4.00;;;6.60;99.90;;;;;;4905881;29;20191;-89
2022/02/22 04:35:13;;;;;;;30.77;5.70;;;4.70;99.90;;;;;;4920504;29;20168;-88
2022/02/22 04:37:44;;;;;;;29.43;5.03;;;4.80;99.90;;;;;;4941990;29;20476;-90
2022/02/22 04:40:10;;;;;;;16.52;5.32;;;6.30;99.90;;;;;;4950018;23;20466;-87
2022/02/22 04:42:36;;;;;;;24.63;6.10;;;5.00;99.90;;;;;;4885512;29;20665;-86
2022/02/22 04:45:02;;;;;;;21.50;4.00;;;6.30;99.90;;;;;;4898176;29;20210;-87
2022/02/22 04:47:28;;;;;;;25.77;6.05;;;5.00;99.90;;;;;;4899397;29;20610;-87
2022/02/22 04:49:54;;;;;;;24.30;4.63;;;6.50;99.90;;;;;;4907438;29;20370;-86
2022/02/22 04:52:22;;;;;;;23.17;4.23;;;5.00;99.90;;;;;;4920812;29;20720;-89
2022/02/22 04:54:48;;;;;;;22.35;4.97;;;5.40;99.90;;;;;;4917937;29;20196;-87
2022/02/22 04:57:14;;;;;;;17.93;4.67;;;;;;;;;;4916754;29;20195;-87
2022/02/22 04:59:43;;;;;;;18.17;4.28;;;5.10;99.90;;;;;;4910989;29;20219;-87
2022/02/22 05:02:08;;;;;;;16.73;4.38;;;6.70;99.90;;;;;;4906520;29;20289;-87
2022/02/22 05:04:40;;;;;;;21.90;4.60;;;5.40;99.90;;;;;;4916236;29;20223;-87
2022/02/22 05:07:08;;;;;;;16.83;4.05;;;5.00;99.90;;;;;;4918084;29;20211;-87
2022/02/22 05:09:34;;;;;;;22.30;6.15;;;4.90;99.90;;;;;;4878347;29;20192;-88
2022/02/22 05:12:02;;;;;;;16.43;4.07;;;5.60;99.90;;;;;;4896784;29;20195;-88
2022/02/22 05:14:29;;;;;;;21.35;5.75;;;5.40;99.90;;;;;;4877997;29;20185;-86
2022/02/22 05:16:57;;;;;;;21.17;4.97;;;7.00;99.90;;;;;;4903277;29;20244;-87
2022/02/22 05:19:23;;;;;;;22.77;5.60;;;6.40;99.90;;;;;;4886101;29;20189;-87
2022/02/22 05:21:49;;;;;;;17.13;4.63;;;;;;;;;;4883064;29;20219;-87
2022/02/22 05:24:15;;;;;;;32.65;5.63;;;5.10;99.90;;;;;;4899044;29;20220;-87
2022/02/22 05:26:44;;;;;;;40.67;5.90;;;7.00;99.90;;;;;;4879318;29;20204;-87
2022/02/22 05:29:10;;;;;;;17.00;4.32;;;5.00;99.90;;;;;;4879950;29;20464;-87
2022/02/22 05:31:38;;;;;;;18.00;5.10;;;7.80;99.90;;;;;;4881027;29;20290;-87
2022/02/22 05:34:07;;;;;;;21.48;4.78;;;5.60;99.90;;;;;;4878857;29;20714;-87
2022/02/22 05:36:33;;;;;;;20.83;5.10;;;9.70;99.90;;;;;;4894755;29;20211;-86
2022/02/22 05:38:59;;;;;;;25.17;5.90;;;;;;;;;;4887844;29;20552;-87
2022/02/22 05:41:24;;;;;;;20.10;4.80;;;4.90;99.90;;;;;;4900366;29;20728;-87
2022/02/22 05:43:50;;;;;;;23.00;5.20;;;5.10;99.90;;;;;;4896649;29;20467;-87
2022/02/22 05:46:19;;;;;;;19.77;5.07;;;;;;;;;;4902919;29;20223;-88
2022/02/22 05:48:47;;;;;;;12.27;5.03;;;5.40;99.90;;;;;;4892882;29;20253;-87
2022/02/22 05:51:34;;;;;;;27.58;5.75;;;5.20;99.90;;;;;;4882098;29;20297;-87
2022/02/22 05:54:00;;;;;;;19.98;5.18;;;4.90;99.90;;;;;;4888907;29;20681;-88
2022/02/22 05:56:26;;;;;;;25.80;6.23;;;;;;;;;;4910961;29;20181;-87
2022/02/22 05:58:51;;;;;;;24.63;5.47;;;4.90;99.90;;;;;;4886918;29;20451;-86
2022/02/22 06:01:17;;;;;;;29.27;8.60;;;;;;;;;;4892889;29;20499;-86
2022/02/22 06:03:46;;;;;;;17.67;6.05;;;5.20;99.90;;;;;;4895651;29;20224;-87
2022/02/22 06:06:22;;;;;;;32.63;7.10;;;7.20;99.90;;;;;;4884297;29;20204;-87
2022/02/22 06:08:51;;;;;;;23.35;5.90;;;5.10;99.90;;;;;;4885238;29;20236;-87
2022/02/22 06:11:19;;;;;;;32.13;7.07;;;4.70;99.90;;;;;;4887609;29;20491;-86
2022/02/22 06:13:50;;;;;;;25.80;6.70;;;4.90;99.90;;;;;;4915268;29;20237;-87
2022/02/22 06:16:21;;;;;;;20.58;5.63;;;4.60;99.90;;;;;;4905605;29;20180;-88
2022/02/22 06:18:47;;;;;;;23.60;6.40;;;4.90;99.90;;;;;;4885016;29;20220;-85
2022/02/22 06:21:32;;;;;;;26.07;5.50;;;4.80;99.90;;;;;;4900733;29;20192;-88
2022/02/22 06:24:24;;;;;;;38.60;8.83;;;4.60;99.90;;;;;;4547941;29;10000417;-88
2022/02/22 06:26:58;;;;;;;21.55;5.50;;;4.30;99.90;;;;;;4912833;29;20520;-86
2022/02/22 06:29:24;;;;;;;23.63;6.05;;;5.20;99.90;;;;;;4891998;29;20784;-86
2022/02/22 06:31:50;;;;;;;34.13;5.47;;;;;;;;;;4908673;29;20213;-87
2022/02/22 06:34:30;;;;;;;;;;;;;;;;;;;;;
2022/02/22 06:36:59;;;;;;;16.98;7.45;;;6.90;99.90;;;;;;4892986;29;20241;-87
2022/02/22 06:39:31;;;;;;;33.05;7.75;;;4.90;99.90;;;;;;4882177;29;20194;-88
2022/02/22 06:41:56;;;;;;;25.08;5.40;;;6.40;99.90;;;;;;4899653;29;20306;-83
2022/02/22 06:44:25;;;;;;;28.90;7.50;;;4.30;99.90;;;;;;4884550;29;20224;-78
2022/02/22 06:46:53;;;;;;;26.50;6.65;;;4.40;99.90;;;;;;4884054;29;20439;-85
2022/02/22 06:49:20;;;;;;;23.00;7.50;;;4.50;99.90;;;;;;4898721;29;20209;-86
2022/02/22 06:51:50;;;;;;;20.20;6.35;;;3.10;99.90;;;;;;4878788;29;20196;-81
2022/02/22 06:54:21;;;;;;;20.92;6.43;;;4.20;99.90;;;;;;4900784;29;20287;-86
2022/02/22 06:56:47;;;;;;;18.45;6.78;;;4.50;99.90;;;;;;4881587;29;20747;-87
2022/02/22 06:59:13;;;;;;;24.45;6.03;;;4.50;99.90;;;;;;4885651;29;20197;-82
2022/02/22 07:02:01;;;;;;;18.33;6.03;;;4.60;99.90;;;;;;4885820;29;20662;-90
2022/02/22 07:09:40;;;;;;;22.83;6.35;;;4.60;99.90;;;;;;4725136;23;20747;-85
2022/02/22 07:12:06;;;;;;;26.88;7.45;;;7.30;99.90;;;;;;4900523;29;20315;-84
2022/02/22 07:14:31;;;;;;;14.63;4.87;;;4.60;99.90;;;;;;4913401;29;20254;-84
2022/02/22 07:16:57;;;;;;;35.57;5.90;;;6.70;99.90;;;;;;4909468;29;20966;-83
2022/02/22 07:19:23;;;;;;;18.03;5.00;;;4.60;99.90;;;;;;4923823;29;20252;-84
2022/02/22 07:21:48;;;;;;;23.03;5.77;;;3.80;99.90;;;;;;4927915;29;20212;-82
2022/02/22 07:24:14;;;;;;;27.77;6.03;;;4.80;99.90;;;;;;4940080;29;20215;-83
2022/02/22 07:26:40;;;;;;;15.97;4.00;;;4.60;99.90;;;;;;4934322;29;20191;-84
2022/02/22 07:29:05;;;;;;;14.93;4.70;;;4.50;99.90;;;;;;4920722;29;20214;-81
2022/02/22 07:31:31;;;;;;;23.33;4.80;;;4.50;99.90;;;;;;4925665;29;20211;-84
2022/02/22 07:33:57;;;;;;;20.30;5.47;;;4.70;99.90;;;;;;4931020;29;20286;-84
2022/02/22 07:36:22;;;;;;;23.90;4.60;;;4.70;99.90;;;;;;4921706;29;20195;-85
2022/02/22 07:38:48;;;;;;;24.40;6.30;;;4.70;99.90;;;;;;4934479;29;20270;-83
2022/02/22 07:41:22;;;;;;;14.27;4.10;;;4.80;99.90;;;;;;4921764;29;20227;-83
2022/02/22 07:43:49;;;;;;;19.45;4.95;;;4.90;99.90;;;;;;4923594;29;20306;-85
2022/02/22 07:46:17;;;;;;;15.45;5.18;;;5.40;99.90;;;;;;4916830;29;20196;-84
2022/02/22 07:48:47;;;;;;;19.88;4.15;;;5.60;99.90;;;;;;4927062;29;20183;-83
2022/02/22 07:51:16;;;;;;;23.65;5.72;;;5.70;99.90;;;;;;4919516;29;20221;-83
2022/02/22 07:53:45;;;;;;;10.65;3.88;;;5.80;99.90;;;;;;4924574;29;20180;-84
2022/02/22 07:56:12;;;;;;;10.63;4.75;;;5.90;99.90;;;;;;4923960;29;20191;-83
2022/02/22 07:58:38;;;;;;;11.25;4.13;;;5.70;99.90;;;;;;4899104;29;20244;-83
2022/02/22 08:01:05;;;;;;;16.10;4.05;;;7.30;99.90;;;;;;4911624;29;20189;-84
2022/02/22 08:03:31;;;;;;;27.75;6.05;;;5.90;99.90;;;;;;4914746;29;20203;-83
2022/02/22 08:06:25;;;;;;;22.85;4.93;;;5.90;99.90;;;;;;4916727;29;20203;-83
2022/02/22 08:08:50;;;;;;;14.10;4.30;;;4.90;99.90;;;;;;4932024;29;20723;-83
2022/02/22 08:11:16;;;;;;;14.77;3.87;;;6.10;99.90;;;;;;4927538;29;20195;-84
2022/02/22 08:13:42;;;;;;;25.37;5.33;;;7.70;99.90;;;;;;4908262;29;20196;-83
2022/02/22 08:16:07;;;;;;;16.73;5.50;;;6.00;99.90;;;;;;4911853;29;20202;-83
2022/02/22 08:18:33;;;;;;;14.47;4.70;;;6.10;99.90;;;;;;4936880;29;20187;-83
2022/02/22 08:20:58;;;;;;;17.83;4.97;;;6.10;99.90;;;;;;4908258;29;20203;-83
2022/02/22 08:23:30;;;;;;;19.10;6.00;;;8.40;99.90;;;;;;4924567;29;20176;-84
2022/02/22 08:25:57;;;;;;;18.70;4.78;;;7.10;99.90;;;;;;4918475;29;20211;-82
2022/02/22 08:28:39;;;;;;;15.48;5.30;;;6.40;99.90;;;;;;4917672;29;20894;-84
2022/02/22 08:31:07;;;;;;;14.57;4.95;;;6.50;99.90;;;;;;4918467;29;20316;-85
2022/02/22 08:33:33;;;;;;;16.77;4.63;;;6.50;99.90;;;;;;4923316;29;20670;-83
2022/02/22 08:35:58;;;;;;;19.47;5.93;;;8.60;99.90;;;;;;4927398;29;20183;-81
2022/02/22 08:38:27;;;;;;;16.63;4.87;;;6.90;99.90;;;;;;4915115;29;20191;-82
2022/02/22 08:40:56;;;;;;;16.03;5.10;;;6.60;99.90;;;;;;4927926;29;20246;-81
2022/02/22 08:43:21;;;;;;;15.87;4.63;;;7.00;99.90;;;;;;4230469;29;10000672;-82
2022/02/22 08:45:50;;;;;;;17.00;4.53;;;8.30;99.90;;;;;;4928378;29;20270;-83
2022/02/22 08:48:16;;;;;;;13.98;4.93;;;7.50;99.90;;;;;;4923634;29;20219;-83
2022/02/22 08:50:42;;;;;;;28.93;5.90;;;7.50;99.90;;;;;;4911049;29;20773;-82
2022/02/22 08:53:08;;;;;;;19.83;5.90;;;7.60;99.90;;;;;;4908937;29;21171;-81
2022/02/22 08:55:34;;;;;;;17.38;6.13;;;7.70;99.90;;;;;;4911122;29;20412;-80
2022/02/22 08:58:02;;;;;;;12.10;4.45;;;7.60;99.90;;;;;;4909978;29;20180;-78
2022/02/22 09:00:28;;;;;;;10.55;4.70;;;7.70;99.90;;;;;;4877499;29;20373;-81
2022/02/22 09:02:57;;;;;;;12.40;3.90;;;7.60;99.90;;;;;;4909040;29;20626;-83
2022/02/22 09:05:27;;;;;;;13.88;4.45;;;7.40;99.90;;;;;;4893227;29;20234;-81
2022/02/22 09:07:53;;;;;;;14.18;6.47;;;7.70;99.90;;;;;;4907422;29;20656;-82
2022/02/22 09:10:20;;;;;;;13.47;4.67;;;7.20;99.90;;;;;;4910332;29;20180;-80
2022/02/22 09:12:46;;;;;;;10.57;4.47;;;7.60;99.90;;;;;;4913238;29;20420;-81
2022/02/22 09:15:14;;;;;;;16.90;4.43;;;7.60;99.90;;;;;;4908529;29;20207;-82
2022/02/22 09:17:41;;;;;;;13.48;4.72;;;7.60;99.90;;;;;;4910952;29;20845;-82
2022/02/22 09:20:08;;;;;;;8.35;4.10;;;7.10;99.90;;;;;;4908161;29;20208;-80
2022/02/22 09:22:35;;;;;;;10.55;5.95;;;7.30;99.90;;;;;;4886420;29;20235;-81
2022/02/22 09:25:03;;;;;;;11.93;4.05;;;7.40;99.90;;;;;;4898662;29;20268;-81
2022/02/22 09:27:29;;;;;;;17.25;4.25;;;7.40;99.90;;;;;;4898763;29;20188;-82
2022/02/22 09:29:55;;;;;;;8.80;4.32;;;7.40;99.90;;;;;;4913182;29;20211;-82
2022/02/22 09:32:20;;;;;;;6.67;3.40;;;7.40;99.90;;;;;;4912286;29;20753;-81
2022/02/22 09:34:49;;;;;;;23.07;5.27;;;7.40;99.90;;;;;;4913640;29;20180;-81
2022/02/22 09:37:16;;;;;;;11.75;3.58;;;9.90;99.90;;;;;;4910702;29;20230;-81
2022/02/22 09:39:42;;;;;;;15.40;4.70;;;7.50;99.90;;;;;;4912599;29;20183;-81
2022/02/22 09:42:08;;;;;;;9.90;3.83;;;7.80;99.90;;;;;;4910885;29;20192;-81
2022/02/22 09:44:36;;;;;;;6.70;3.45;;;7.50;99.90;;;;;;4913816;29;20471;-82
2022/02/22 09:47:03;;;;;;;10.32;3.78;;;7.60;99.90;;;;;;4925845;29;20196;-80
2022/02/22 09:49:31;;;;;;;15.93;3.90;;;7.70;99.90;;;;;;4901864;29;20285;-82
2022/02/22 09:55:18;;;;;;;10.13;4.15;;;8.10;99.90;;;;;;5060028;28;20652;-83
2022/02/22 09:57:44;;;;;;;7.50;3.10;;;8.00;99.90;;;;;;5052000;28;20183;-80
2022/02/22 10:00:25;;;;;;;4.83;3.47;;;8.20;99.90;;;;;;5029568;28;20278;-82
2022/02/22 10:02:53;;;;;;;10.80;3.05;;;8.30;99.90;;;;;;5062068;28;20452;-81
2022/02/22 10:05:21;;;;;;;10.07;3.05;;;8.30;99.90;;;;;;5060549;28;20207;-81
2022/02/22 10:08:03;;;;;;;11.13;5.67;;;8.30;99.90;;;;;;5055130;28;20175;-83
2022/02/22 10:10:36;;;;;;;8.23;3.92;;;8.30;99.90;;;;;;5025983;28;21002;-82
2022/02/22 10:13:04;;;;;;;11.50;5.35;;;8.30;99.90;;;;;;5023770;28;20206;-81
2022/02/22 10:15:39;;;;;;;13.30;4.87;;;8.40;99.90;;;;;;4673935;28;9999743;-82
2022/02/22 10:18:08;;;;;;;6.93;3.78;;;8.50;99.90;;;;;;5016946;28;20190;-83
2022/02/22 10:20:36;;;;;;;12.52;3.20;;;9.10;99.90;;;;;;5023686;28;20192;-82
2022/02/22 10:23:08;;;;;;;22.90;4.67;;;9.70;99.90;;;;;;5034313;28;20213;-81
2022/02/22 10:25:36;;;;;;;13.68;4.70;;;8.70;99.90;;;;;;5034348;28;20442;-86
2022/02/22 10:28:19;;;;;;;5.30;4.45;;;8.70;99.90;;;;;;5037814;28;20657;-84
2022/02/22 10:30:45;;;;;;;9.43;4.43;;;8.70;99.90;;;;;;5028810;28;20261;-84
2022/02/22 10:33:14;;;;;;;13.43;5.60;;;8.70;99.90;;;;;;5023753;28;20434;-84
2022/02/22 10:35:40;;;;;;;12.50;4.88;;;8.70;99.90;;;;;;5028327;28;20448;-84
2022/02/22 10:38:12;;;;;;;11.07;4.63;;;9.10;99.90;;;;;;5022686;28;20188;-84
2022/02/22 10:40:41;;;;;;;10.90;4.72;;;9.50;99.90;;;;;;5020557;28;20203;-82
2022/02/22 10:43:08;;;;;;;12.40;5.03;;;10.10;99.90;;;;;;5025246;28;20207;-83
2022/02/22 10:45:34;;;;;;;13.20;4.63;;;10.10;99.90;;;;;;5027149;28;20804;-85
2022/02/22 10:47:59;;;;;;;6.57;5.13;;;8.90;99.90;;;;;;5015033;28;20454;-86
2022/02/22 10:50:31;;;;;;;16.63;5.53;;;8.80;99.90;;;;;;5024547;28;20195;-85
2022/02/22 10:52:57;;;;;;;13.88;7.28;;;9.10;99.90;;;;;;5024698;28;20198;-81
2022/02/22 10:55:23;;;;;;;14.30;5.63;;;8.70;99.90;;;;;;5025262;28;20168;-87
2022/02/22 10:57:52;;;;;;;14.60;4.90;;;8.40;99.90;;;;;;5033353;28;20492;-85
2022/02/22 11:00:18;;;;;;;14.20;5.20;;;8.70;99.90;;;;;;5003186;28;20566;-85
2022/02/22 11:02:45;;;;;;;11.87;5.53;;;8.70;99.90;;;;;;5018674;28;20522;-83
2022/02/22 11:05:12;;;;;;;9.52;4.07;;;8.60;99.90;;;;;;5014237;28;20466;-81
2022/02/22 11:07:41;;;;;;;11.18;5.53;;;8.70;99.90;;;;;;5011445;28;20238;-82
2022/02/22 11:10:09;;;;;;;8.47;4.67;;;8.70;99.90;;;;;;5011454;28;20177;-83
2022/02/22 11:12:54;;;;;;;6.47;4.77;;;8.80;99.90;;;;;;5014660;28;20470;-85
2022/02/22 11:15:31;;;;;;;13.18;4.28;;;8.80;99.90;;;;;;5008418;28;20470;-84
2022/02/22 11:18:02;;;;;;;15.30;4.25;;;8.90;99.90;;;;;;5013973;28;20307;-88
2022/02/22 11:20:31;;;;;;;10.05;4.05;;;8.60;99.90;;;;;;5007991;28;20195;-85
2022/02/22 11:23:00;;;;;;;9.43;3.80;;;9.00;99.90;;;;;;5012999;28;20200;-86
2022/02/22 11:25:34;;;;;;;14.93;3.95;;;10.00;99.90;;;;;;5008567;28;20422;-85
2022/02/22 11:28:10;;;;;;;8.70;2.55;;;9.10;99.90;;;;;;5015921;28;20203;-85
2022/02/22 11:30:44;;;;;;;12.05;4.30;;;9.90;99.90;;;;;;5000964;28;20176;-81
2022/02/22 11:33:20;;;;;;;9.05;4.03;;;8.90;99.90;;;;;;5012541;28;20207;-85
2022/02/22 11:36:10;;;;;;;15.30;5.68;;;9.00;99.90;;;;;;5002188;28;20195;-84
2022/02/22 11:38:45;;;;;;;16.20;4.85;;;9.00;99.90;;;;;;5011828;28;20201;-84
2022/02/22 11:41:19;;;;;;;10.10;3.83;;;9.00;99.90;;;;;;5008308;28;20187;-84
2022/02/22 11:44:04;;;;;;;8.65;3.88;;;8.70;99.90;;;;;;4996091;28;20225;-85
2022/02/22 11:46:47;;;;;;;7.85;3.97;;;8.60;99.90;;;;;;4996942;28;20309;-79
2022/02/22 11:49:21;;;;;;;24.20;6.10;;;8.90;99.90;;;;;;5031594;28;20253;-85
2022/02/22 11:51:52;;;;;;;17.35;6.45;;;9.50;99.90;;;;;;5018670;28;20276;-84
2022/02/22 11:54:26;;;;;;;17.70;5.43;;;10.30;99.90;;;;;;5012370;28;20248;-79
2022/02/22 11:57:09;;;;;;;9.55;4.25;;;8.70;99.90;;;;;;5011878;28;20822;-85
2022/02/22 11:59:57;;;;;;;14.30;4.30;;;8.80;99.90;;;;;;5005292;28;20229;-81
2022/02/22 12:02:41;;;;;;;17.40;3.65;;;8.90;99.90;;;;;;5010757;28;20967;-81
2022/02/22 12:05:28;;;;;;;9.93;3.60;;;8.90;99.90;;;;;;5012015;28;20212;-82
2022/02/22 12:08:02;;;;;;;13.77;4.17;;;9.00;99.90;;;;;;5007737;28;20295;-83
2022/02/22 12:10:32;;;;;;;6.73;3.47;;;9.10;99.90;;;;;;5010586;28;20681;-85
2022/02/22 12:13:20;;;;;;;9.07;3.80;;;8.80;99.90;;;;;;5022871;28;20428;-85
2022/02/22 12:15:47;;;;;;;10.50;4.17;;;8.80;99.90;;;;;;5002369;28;20499;-85
2022/02/22 12:18:24;;;;;;;11.80;4.30;;;8.90;99.90;;;;;;5018288;28;20799;-84
2022/02/22 12:20:52;;;;;;;17.27;3.97;;;8.90;99.90;;;;;;5008798;28;20203;-83
2022/02/22 12:23:26;;;;;;;14.67;3.80;;;8.80;99.90;;;;;;5030805;28;20281;-84
2022/02/22 12:26:21;;;;;;;11.65;3.97;;;8.80;99.90;;;;;;5014562;28;20625;-81
2022/02/22 12:28:51;;;;;;;17.60;3.53;;;8.70;99.90;;;;;;5004505;28;20196;-84
2022/02/22 12:31:31;;;;;;;8.63;2.47;;;8.70;99.90;;;;;;4662763;28;10000578;-83
2022/02/22 12:34:17;;;;;;;18.20;4.35;;;8.70;99.90;;;;;;5001568;28;20196;-84
2022/02/22 12:36:45;;;;;;;19.55;4.70;;;9.40;99.90;;;;;;5013595;28;20180;-84
2022/02/22 12:39:13;;;;;;;16.30;5.75;;;7.90;99.90;;;;;;5025483;28;20202;-83
2022/02/22 12:41:43;;;;;;;8.65;3.55;;;7.90;99.90;;;;;;5010403;28;20207;-85
2022/02/22 12:44:30;;;;;;;11.18;3.45;;;10.30;99.90;;;;;;4992326;28;20209;-84
2022/02/22 12:47:18;;;;;;;19.77;4.40;;;7.80;99.90;;;;;;4994874;28;20217;-85
2022/02/22 12:49:44;;;;;;;18.20;5.50;;;7.30;99.90;;;;;;4662722;28;10000641;-85
2022/02/22 12:52:15;;;;;;;18.70;4.57;;;10.40;99.90;;;;;;5014376;28;20521;-86
2022/02/22 12:54:41;;;;;;;24.17;4.78;;;7.80;99.90;;;;;;5017046;28;20463;-84
2022/02/22 12:57:07;;;;;;;13.47;3.40;;;7.70;99.90;;;;;;5019845;28;20183;-85
2022/02/22 12:59:37;;;;;;;14.13;4.28;;;7.80;99.90;;;;;;5020198;28;20177;-87
2022/02/22 13:02:10;;;;;;;18.48;5.85;;;7.80;99.90;;;;;;5016850;28;20532;-87
2022/02/22 13:04:38;;;;;;;21.63;4.60;;;7.60;99.90;;;;;;5017040;28;20192;-87
2022/02/22 13:07:20;;;;;;;8.90;4.10;;;9.20;99.90;;;;;;5017146;28;20181;-86
2022/02/22 13:09:48;;;;;;;18.33;5.10;;;8.00;99.90;;;;;;5011077;28;20276;-86
2022/02/22 13:12:20;;;;;;;17.23;4.32;;;8.90;99.90;;;;;;4996874;28;20178;-87
2022/02/22 13:14:55;;;;;;;13.50;4.10;;;8.20;99.90;;;;;;4997728;28;20196;-87
2022/02/22 13:17:33;;;;;;;21.52;5.00;;;8.00;99.90;;;;;;5010592;28;20487;-82
2022/02/22 13:20:00;;;;;;;13.07;4.50;;;10.30;99.90;;;;;;5005385;28;20238;-84
2022/02/22 13:22:38;;;;;;;13.75;3.75;;;7.80;99.90;;;;;;5005924;28;20229;-87
2022/02/22 13:25:08;;;;;;;10.97;4.20;;;9.20;99.90;;;;;;5014119;28;20666;-86
2022/02/22 13:27:35;;;;;;;11.15;3.97;;;8.80;99.90;;;;;;5010452;28;20515;-85
2022/02/22 13:30:04;;;;;;;16.42;5.28;;;5.90;99.90;;;;;;4992177;28;20188;-87
2022/02/22 13:32:38;;;;;;;12.93;4.10;;;7.00;99.90;;;;;;4992850;28;20211;-82
2022/02/22 13:35:18;;;;;;;7.78;4.88;;;7.40;99.90;;;;;;5006844;28;20203;-84
2022/02/22 13:38:35;;;;;;;10.85;3.70;;;8.00;99.90;;;;;;5017986;28;20199;-85
2022/02/22 13:43:55;;;;;;;16.55;2.80;;;8.10;99.90;;;;;;5107085;23;20228;-87
2022/02/22 13:46:57;;;;;;;9.93;3.67;;;8.00;99.90;;;;;;5015999;28;20282;-86
2022/02/22 13:49:23;;;;;;;14.83;1.93;;;9.20;99.90;;;;;;5006570;28;20165;-85
2022/02/22 13:51:57;;;;;;;11.23;3.33;;;10.70;99.90;;;;;;4993308;28;20820;-84
2022/02/22 13:54:30;;;;;;;6.57;3.40;;;7.90;99.90;;;;;;5011228;28;20955;-85
2022/02/22 13:57:07;;;;;;;13.80;3.97;;;8.50;99.90;;;;;;4989442;28;20731;-83
2022/02/22 13:59:52;;;;;;;5.00;3.05;;;8.20;99.90;;;;;;4992295;28;20236;-82
2022/02/22 14:02:29;;;;;;;13.02;4.53;;;8.30;99.90;;;;;;5004953;28;20204;-82
2022/02/22 14:04:55;;;;;;;7.05;4.35;;;11.70;99.90;;;;;;5002737;28;20204;-83
2022/02/22 14:07:21;;;;;;;12.07;3.83;;;;;;;;;;5007726;28;20194;-82
2022/02/22 14:09:48;;;;;;;8.32;3.47;;;8.30;99.90;;;;;;5008917;28;20188;-82
2022/02/22 14:12:19;;;;;;;9.15;3.67;;;10.70;99.90;;;;;;4990361;28;20188;-82
2022/02/22 14:14:45;;;;;;;9.20;3.23;;;9.00;99.90;;;;;;4981823;28;20184;-81
2022/02/22 14:17:20;;;;;;;7.50;3.70;;;8.50;99.90;;;;;;5008997;28;20451;-81
2022/02/22 14:19:49;;;;;;;11.95;4.10;;;8.80;99.90;;;;;;5009973;28;20517;-83